createdAt,value
2023-01-19T00:01:44.584Z,13.30
2023-01-19T00:04:13.285Z,17.90
2023-01-19T00:06:42.066Z,17.40
2023-01-19T00:09:10.349Z,18.30
2023-01-19T00:11:39.039Z,14.90
2023-01-19T00:14:07.427Z,16.00
2023-01-19T00:16:36.003Z,23.20
2023-01-19T00:19:04.726Z,17.50
2023-01-19T00:21:32.882Z,18.90
2023-01-19T00:24:01.065Z,17.60
2023-01-19T00:26:29.345Z,23.00
2023-01-19T00:28:57.934Z,21.60
2023-01-19T00:31:26.552Z,25.70
2023-01-19T00:33:54.907Z,17.70
2023-01-19T00:36:23.191Z,20.40
2023-01-19T00:38:51.471Z,22.80
2023-01-19T00:41:39.706Z,20.10
2023-01-19T00:44:08.576Z,21.80
2023-01-19T00:46:37.093Z,21.20
2023-01-19T00:49:06.086Z,19.70
2023-01-19T00:51:34.276Z,24.00
2023-01-19T00:54:05.108Z,14.70
2023-01-19T00:56:33.388Z,15.50
2023-01-19T00:59:02.183Z,18.00
2023-01-19T01:01:45.040Z,14.60
2023-01-19T01:04:15.021Z,16.10
2023-01-19T01:06:43.310Z,16.80
2023-01-19T01:09:14.756Z,14.80
2023-01-19T01:11:43.893Z,17.00
2023-01-19T01:14:12.856Z,14.90
2023-01-19T01:16:41.498Z,17.10
2023-01-19T01:19:09.931Z,16.80
2023-01-19T01:21:38.224Z,19.20
2023-01-19T01:24:08.025Z,24.10
2023-01-19T01:26:36.115Z,16.10
2023-01-19T01:29:06.554Z,16.60
2023-01-19T01:31:34.965Z,18.80
2023-01-19T01:34:03.630Z,20.20
2023-01-19T01:36:33.637Z,20.40
2023-01-19T01:39:01.820Z,16.60
2023-01-19T01:41:30.635Z,14.30
2023-01-19T01:44:01.832Z,15.20
2023-01-19T01:46:32.296Z,19.20
2023-01-19T01:49:05.997Z,15.20
2023-01-19T01:51:48.404Z,14.60
2023-01-19T01:54:27.619Z,19.20
2023-01-19T01:57:01.146Z,13.40
2023-01-19T02:02:51.391Z,14.80
2023-01-19T02:05:36.465Z,29.70
2023-01-19T02:08:35.688Z,18.30
2023-01-19T02:11:23.714Z,16.10
2023-01-19T02:13:51.988Z,19.40
2023-01-19T02:16:20.537Z,24.00
2023-01-19T02:18:48.963Z,15.60
2023-01-19T02:21:29.013Z,19.30
2023-01-19T02:24:01.799Z,14.50
2023-01-19T02:26:35.397Z,16.60
2023-01-19T02:29:21.702Z,13.60
2023-01-19T02:31:50.794Z,14.40
2023-01-19T02:34:21.125Z,19.10
2023-01-19T02:36:54.116Z,16.80
2023-01-19T02:39:34.169Z,17.00
2023-01-19T02:42:15.810Z,11.30
2023-01-19T02:44:48.416Z,13.50
2023-01-19T02:47:17.223Z,13.30
2023-01-19T02:49:53.998Z,25.90
2023-01-19T02:52:22.811Z,15.00
2023-01-19T02:55:19.628Z,17.70
2023-01-19T02:58:02.250Z,21.40
2023-01-19T03:00:52.104Z,15.60
2023-01-19T03:03:42.188Z,18.90
2023-01-19T03:06:31.563Z,14.20
2023-01-19T03:09:21.737Z,17.20
2023-01-19T03:12:29.517Z,15.00
2023-01-19T03:15:05.266Z,11.10
2023-01-19T03:17:36.028Z,15.00
2023-01-19T03:20:06.883Z,19.00
2023-01-19T03:22:35.537Z,17.60
2023-01-19T03:25:04.715Z,18.80
2023-01-19T03:27:41.140Z,20.60
2023-01-19T03:30:26.272Z,21.50
2023-01-19T03:33:07.392Z,23.30
2023-01-19T03:35:39.621Z,22.80
2023-01-19T03:38:15.063Z,18.40
2023-01-19T03:40:45.392Z,17.80
2023-01-19T03:43:16.954Z,25.40
2023-01-19T03:45:46.878Z,20.10
2023-01-19T03:48:15.255Z,20.30
2023-01-19T03:50:43.545Z,20.30
2023-01-19T03:53:14.893Z,20.70
2023-01-19T03:55:47.402Z,24.30
2023-01-19T03:58:15.762Z,15.90
2023-01-19T04:00:44.553Z,19.80
2023-01-19T04:03:17.661Z,19.60
2023-01-19T04:05:46.340Z,18.10
2023-01-19T04:08:15.325Z,23.00
2023-01-19T04:10:43.811Z,22.30
2023-01-19T04:13:12.201Z,19.70
2023-01-19T04:15:40.614Z,15.90
2023-01-19T04:18:09.272Z,20.60
2023-01-19T04:20:37.653Z,17.10
2023-01-19T04:23:06.161Z,15.60
2023-01-19T04:25:34.540Z,21.30
2023-01-19T04:28:03.222Z,28.70
2023-01-19T04:30:32.215Z,23.80
2023-01-19T04:33:00.972Z,26.80
2023-01-19T04:35:29.920Z,20.60
2023-01-19T04:37:58.093Z,25.90
2023-01-19T04:40:26.371Z,38.30
2023-01-19T04:42:54.882Z,57.00
2023-01-19T04:45:23.543Z,45.50
2023-01-19T04:47:52.134Z,29.00
2023-01-19T04:50:20.418Z,35.70
2023-01-19T04:52:49.239Z,34.10
2023-01-19T04:55:18.250Z,26.50
2023-01-19T04:57:46.794Z,30.20
2023-01-19T05:00:17.955Z,32.20
2023-01-19T05:02:46.566Z,76.20
2023-01-19T05:05:16.504Z,41.20
2023-01-19T05:07:44.734Z,34.10
2023-01-19T05:10:13.532Z,30.20
2023-01-19T05:12:42.630Z,28.60
2023-01-19T05:15:11.364Z,44.60
2023-01-19T05:17:40.014Z,75.40
2023-01-19T05:20:11.201Z,60.90
2023-01-19T05:22:39.853Z,43.20
2023-01-19T05:25:08.933Z,44.20
2023-01-19T05:27:38.752Z,41.30
2023-01-19T05:30:07.967Z,69.40
2023-01-19T05:32:36.338Z,57.40
2023-01-19T05:35:05.395Z,88.70
2023-01-19T05:37:33.640Z,92.80
2023-01-19T05:40:01.950Z,71.20
2023-01-19T05:42:32.093Z,54.60
2023-01-19T05:45:01.363Z,35.30
2023-01-19T05:47:30.144Z,46.20
2023-01-19T05:49:58.735Z,47.10
2023-01-19T05:52:27.018Z,45.60
2023-01-19T05:54:55.394Z,41.50
2023-01-19T05:57:24.091Z,48.80
2023-01-19T05:59:52.575Z,38.30
2023-01-19T06:02:21.935Z,56.40
2023-01-19T06:04:50.365Z,48.10
2023-01-19T06:07:18.651Z,44.80
2023-01-19T06:09:47.347Z,47.60
2023-01-19T06:12:15.523Z,59.20
2023-01-19T06:14:43.906Z,39.90
2023-01-19T06:17:12.190Z,45.00
2023-01-19T06:19:40.916Z,34.40
2023-01-19T06:22:09.622Z,46.30
2023-01-19T06:24:38.161Z,43.20
2023-01-19T06:27:07.570Z,43.70
2023-01-19T06:29:36.357Z,37.70
2023-01-19T06:32:05.758Z,39.40
2023-01-19T06:34:34.050Z,43.40
2023-01-19T06:37:02.636Z,50.30
2023-01-19T06:39:30.821Z,50.80
2023-01-19T06:41:59.209Z,54.90
2023-01-19T06:44:27.587Z,48.30
2023-01-19T06:47:14.520Z,55.00
2023-01-19T06:49:44.104Z,50.00
2023-01-19T06:52:17.604Z,54.70
2023-01-19T06:54:46.400Z,41.70
2023-01-19T06:57:15.369Z,35.10
2023-01-19T06:59:43.691Z,40.70
2023-01-19T07:02:27.486Z,57.20
2023-01-19T07:04:57.177Z,41.00
2023-01-19T07:07:26.306Z,28.10
2023-01-19T07:09:54.823Z,33.90
2023-01-19T07:12:24.230Z,41.50
2023-01-19T07:14:52.920Z,42.60
2023-01-19T07:17:21.414Z,46.90
2023-01-19T07:19:49.588Z,50.50
2023-01-19T07:22:17.775Z,51.50
2023-01-19T07:24:46.052Z,48.60
2023-01-19T07:27:16.596Z,43.50
2023-01-19T07:29:44.873Z,44.30
2023-01-19T07:32:13.553Z,62.30
2023-01-19T07:34:41.950Z,41.90
2023-01-19T07:37:10.324Z,62.30
2023-01-19T07:39:38.704Z,51.40
2023-01-19T07:42:07.198Z,54.50
2023-01-19T07:44:35.987Z,47.30
2023-01-19T07:47:07.649Z,38.20
2023-01-19T07:49:36.645Z,44.60
2023-01-19T07:52:05.658Z,42.70
2023-01-19T07:54:34.130Z,44.60
2023-01-19T07:57:02.411Z,42.10
2023-01-19T07:59:32.399Z,38.30
2023-01-19T08:02:01.478Z,44.70
2023-01-19T08:04:30.051Z,40.10
2023-01-19T08:06:58.511Z,51.40
2023-01-19T08:09:26.999Z,48.30
2023-01-19T08:11:55.481Z,53.00
2023-01-19T08:14:23.664Z,49.60
2023-01-19T08:16:52.064Z,41.80
2023-01-19T08:19:20.600Z,37.90
2023-01-19T08:21:48.827Z,42.10
2023-01-19T08:24:23.004Z,37.50
2023-01-19T08:26:58.619Z,33.60
2023-01-19T08:29:27.571Z,41.10
2023-01-19T08:31:57.733Z,34.30
2023-01-19T08:34:26.395Z,28.60
2023-01-19T08:36:54.569Z,57.30
2023-01-19T08:39:24.078Z,32.50
2023-01-19T08:41:52.675Z,42.40
2023-01-19T08:44:21.630Z,35.10
2023-01-19T08:46:50.263Z,44.20
2023-01-19T08:49:18.542Z,36.80
2023-01-19T08:51:47.241Z,44.60
2023-01-19T08:54:18.539Z,44.60
2023-01-19T08:56:47.276Z,37.10
2023-01-19T08:59:17.093Z,36.60
2023-01-19T09:01:45.375Z,37.40
2023-01-19T09:04:14.271Z,34.60
2023-01-19T09:06:42.928Z,36.60
2023-01-19T09:09:11.045Z,36.50
2023-01-19T09:11:39.218Z,29.90
2023-01-19T09:14:08.649Z,35.50
2023-01-19T09:16:37.009Z,32.10
2023-01-19T09:19:08.800Z,28.60
2023-01-19T09:21:37.261Z,32.70
2023-01-19T09:24:05.752Z,36.80
2023-01-19T09:26:34.233Z,30.70
2023-01-19T09:29:03.247Z,36.10
2023-01-19T09:31:31.470Z,45.30
2023-01-19T09:34:00.111Z,31.20
2023-01-19T09:36:28.277Z,31.20
2023-01-19T09:38:56.666Z,34.60
2023-01-19T09:41:26.581Z,31.40
2023-01-19T09:43:58.150Z,38.50
2023-01-19T09:46:35.604Z,34.10
2023-01-19T09:49:12.803Z,33.30
2023-01-19T09:51:45.396Z,52.10
2023-01-19T09:54:28.527Z,48.40
2023-01-19T09:56:57.107Z,30.30
2023-01-19T09:59:29.257Z,30.30
2023-01-19T10:02:00.524Z,33.60
2023-01-19T10:04:43.034Z,31.10
2023-01-19T10:08:03.798Z,35.60
2023-01-19T10:10:33.226Z,38.70
2023-01-19T10:13:20.233Z,35.50
2023-01-19T10:16:12.977Z,24.60
2023-01-19T10:18:51.715Z,25.00
2023-01-19T10:21:42.893Z,37.40
2023-01-19T10:24:33.429Z,52.70
2023-01-19T10:27:02.075Z,33.90
2023-01-19T10:29:38.365Z,41.10
2023-01-19T10:32:15.021Z,38.70
2023-01-19T10:34:43.892Z,34.10
2023-01-19T10:37:26.105Z,39.30
2023-01-19T10:39:57.486Z,34.00
2023-01-19T10:42:29.730Z,31.90
2023-01-19T10:44:58.726Z,29.30
2023-01-19T10:47:37.180Z,37.10
2023-01-19T10:50:40.886Z,33.30
2023-01-19T10:53:21.171Z,29.70
2023-01-19T10:56:22.485Z,26.00
2023-01-19T10:58:51.801Z,36.70
2023-01-19T11:01:24.595Z,40.90
2023-01-19T11:03:55.599Z,34.60
2023-01-19T11:06:30.747Z,35.70
2023-01-19T11:09:16.848Z,45.20
2023-01-19T11:11:51.419Z,54.20
2023-01-19T11:14:23.781Z,32.80
2023-01-19T11:16:56.530Z,59.50
2023-01-19T11:19:33.471Z,49.50
2023-01-19T11:22:27.110Z,41.60
2023-01-19T11:25:03.884Z,42.50
2023-01-19T11:27:36.565Z,32.70
2023-01-19T11:30:22.554Z,41.30
2023-01-19T11:32:51.896Z,27.90
2023-01-19T11:35:34.267Z,37.30
2023-01-19T11:38:12.270Z,33.90
2023-01-19T11:40:42.292Z,47.30
2023-01-19T11:43:13.738Z,38.20
2023-01-19T11:45:44.937Z,51.20
2023-01-19T11:48:23.719Z,37.60
2023-01-19T11:50:52.419Z,47.90
2023-01-19T11:53:29.502Z,41.80
2023-01-19T11:56:06.526Z,22.40
2023-01-19T11:58:39.697Z,37.70
2023-01-19T12:01:14.007Z,36.20
2023-01-19T12:03:55.358Z,47.80
2023-01-19T12:06:35.305Z,32.80
2023-01-19T12:09:09.743Z,37.80
2023-01-19T12:11:44.114Z,48.30
2023-01-19T12:14:22.875Z,50.60
2023-01-19T12:16:54.775Z,45.80
2023-01-19T12:19:34.170Z,39.90
2023-01-19T12:22:04.297Z,42.10
2023-01-19T12:24:45.268Z,44.90
2023-01-19T12:27:44.051Z,44.50
2023-01-19T12:30:18.771Z,36.10
2023-01-19T12:32:47.677Z,41.00
2023-01-19T12:35:54.181Z,43.00
2023-01-19T12:38:38.180Z,47.20
2023-01-19T12:41:26.197Z,32.70
2023-01-19T12:44:16.792Z,43.40
2023-01-19T12:47:03.394Z,52.30
2023-01-19T12:49:51.620Z,35.50
2023-01-19T12:52:22.057Z,56.10
2023-01-19T12:54:58.928Z,34.10
2023-01-19T12:57:33.150Z,45.80
2023-01-19T13:00:28.191Z,39.90
2023-01-19T13:03:25.593Z,45.60
2023-01-19T13:05:56.089Z,35.90
2023-01-19T13:08:53.160Z,36.50
2023-01-19T13:11:26.317Z,46.20
2023-01-19T13:13:58.120Z,39.20
2023-01-19T13:16:27.713Z,49.10
2023-01-19T13:19:00.730Z,50.60
2023-01-19T13:21:44.671Z,47.80
2023-01-19T13:24:24.302Z,40.10
2023-01-19T13:26:59.135Z,41.10
2023-01-19T13:29:37.541Z,46.40
2023-01-19T13:32:19.450Z,43.00
2023-01-19T13:34:54.891Z,39.20
2023-01-19T13:37:32.061Z,65.40
2023-01-19T13:40:01.245Z,32.60
2023-01-19T13:42:35.782Z,45.30
2023-01-19T13:45:30.889Z,30.30
2023-01-19T13:48:02.875Z,68.60
2023-01-19T13:50:36.046Z,40.20
2023-01-19T13:53:19.188Z,40.40
2023-01-19T13:55:50.340Z,40.00
2023-01-19T13:58:24.294Z,64.40
2023-01-19T14:00:53.135Z,53.20
2023-01-19T14:03:24.191Z,49.80
2023-01-19T14:05:54.561Z,44.80
2023-01-19T14:08:25.570Z,40.00
2023-01-19T14:10:53.877Z,56.70
2023-01-19T14:13:29.799Z,58.50
2023-01-19T14:16:01.173Z,54.00
2023-01-19T14:18:31.777Z,44.50
2023-01-19T14:21:03.458Z,60.70
2023-01-19T14:23:57.648Z,48.50
2023-01-19T14:26:38.565Z,54.90
2023-01-19T14:29:24.041Z,33.50
2023-01-19T14:32:12.794Z,53.20
2023-01-19T14:34:48.847Z,56.00
2023-01-19T14:37:23.778Z,43.70
2023-01-19T14:39:55.543Z,46.60
2023-01-19T14:42:34.878Z,48.40
2023-01-19T14:45:08.221Z,50.80
2023-01-19T14:47:43.267Z,55.80
2023-01-19T14:50:17.837Z,41.30
2023-01-19T14:52:54.819Z,44.60
2023-01-19T14:55:52.062Z,50.90
2023-01-19T14:58:23.194Z,36.90
2023-01-19T15:00:58.156Z,46.80
2023-01-19T15:03:43.619Z,49.50
2023-01-19T15:06:18.973Z,46.40
2023-01-19T15:08:49.021Z,54.10
2023-01-19T15:11:35.990Z,48.40
2023-01-19T15:14:04.474Z,54.50
2023-01-19T15:16:34.782Z,38.40
2023-01-19T15:19:03.183Z,55.40
2023-01-19T15:21:31.780Z,44.50
2023-01-19T15:24:00.566Z,50.60
2023-01-19T15:26:29.161Z,52.50
2023-01-19T15:28:57.439Z,64.70
2023-01-19T15:31:27.020Z,49.70
2023-01-19T15:33:55.911Z,49.70
2023-01-19T15:36:24.584Z,49.60
2023-01-19T15:38:52.816Z,53.00
2023-01-19T15:41:30.020Z,42.00
2023-01-19T15:43:59.106Z,53.90
2023-01-19T15:46:28.181Z,48.60
2023-01-19T15:48:56.386Z,42.20
2023-01-19T15:51:26.881Z,59.60
2023-01-19T15:53:55.511Z,49.90
2023-01-19T15:56:26.570Z,50.40
2023-01-19T15:58:55.349Z,48.60
2023-01-19T16:01:34.051Z,56.70
2023-01-19T16:04:05.644Z,60.40
2023-01-19T16:06:34.440Z,53.40
2023-01-19T16:09:04.040Z,45.90
2023-01-19T16:11:34.387Z,49.50
2023-01-19T16:14:02.944Z,65.60
2023-01-19T16:16:31.391Z,53.00
2023-01-19T16:18:59.817Z,49.60
2023-01-19T16:21:28.607Z,46.70
2023-01-19T16:23:57.101Z,58.80
2023-01-19T16:26:34.651Z,52.90
2023-01-19T16:29:10.577Z,49.30
2023-01-19T16:31:40.969Z,58.40
2023-01-19T16:34:10.394Z,43.80
2023-01-19T16:36:41.395Z,47.30
2023-01-19T16:39:13.811Z,40.60
2023-01-19T16:41:43.879Z,49.80
2023-01-19T16:44:14.771Z,47.90
2023-01-19T16:46:45.715Z,52.00
2023-01-19T16:49:17.075Z,62.00
2023-01-19T16:51:46.057Z,62.50
2023-01-19T16:54:15.961Z,51.50
2023-01-19T16:56:44.776Z,58.80
2023-01-19T16:59:16.390Z,49.20
2023-01-19T17:01:45.817Z,53.90
2023-01-19T17:04:14.848Z,57.30
2023-01-19T17:06:43.528Z,56.30
2023-01-19T17:09:12.387Z,55.50
2023-01-19T17:11:41.321Z,60.00
2023-01-19T17:14:16.643Z,46.10
2023-01-19T17:16:44.939Z,52.30
2023-01-19T17:19:16.916Z,51.40
2023-01-19T17:21:48.810Z,48.10
2023-01-19T17:24:17.637Z,43.30
2023-01-19T17:26:48.928Z,44.00
2023-01-19T17:29:17.814Z,44.00
2023-01-19T17:31:46.986Z,46.00
2023-01-19T17:34:15.301Z,65.30
2023-01-19T17:36:44.201Z,56.30
2023-01-19T17:39:15.117Z,60.10
2023-01-19T17:41:43.318Z,46.70
2023-01-19T17:44:12.014Z,54.10
2023-01-19T17:46:40.297Z,54.60
2023-01-19T17:49:08.890Z,43.20
2023-01-19T17:51:37.265Z,37.00
2023-01-19T17:54:05.963Z,48.10
2023-01-19T17:56:37.715Z,43.40
2023-01-19T17:59:08.287Z,49.80
2023-01-19T18:01:40.137Z,47.30
2023-01-19T18:04:10.012Z,52.70
2023-01-19T18:06:38.733Z,62.10
2023-01-19T18:09:07.922Z,50.20
2023-01-19T18:11:36.211Z,43.50
2023-01-19T18:14:05.547Z,51.70
2023-01-19T18:16:34.111Z,54.00
2023-01-19T18:19:02.390Z,48.50
2023-01-19T18:21:30.975Z,61.90
2023-01-19T18:24:04.506Z,65.10
2023-01-19T18:26:34.798Z,43.00
2023-01-19T18:29:03.498Z,54.50
2023-01-19T18:31:32.077Z,55.80
2023-01-19T18:34:01.115Z,54.10
2023-01-19T18:36:32.145Z,46.90
2023-01-19T18:39:01.693Z,59.10
2023-01-19T18:41:30.275Z,63.50
2023-01-19T18:43:59.229Z,51.20
2023-01-19T18:46:27.820Z,51.50
2023-01-19T18:48:56.205Z,53.60
2023-01-19T18:51:24.814Z,66.40
2023-01-19T18:53:53.172Z,54.10
2023-01-19T18:56:21.580Z,50.10
2023-01-19T18:58:49.949Z,43.50
2023-01-19T19:01:18.807Z,50.80
2023-01-19T19:03:47.331Z,54.30
2023-01-19T19:06:17.139Z,56.10
2023-01-19T19:08:45.834Z,55.90
2023-01-19T19:11:14.358Z,67.50
2023-01-19T19:13:42.711Z,66.00
2023-01-19T19:16:13.095Z,58.70
2023-01-19T19:18:41.419Z,59.30
2023-01-19T19:21:12.260Z,59.20
2023-01-19T19:23:40.443Z,55.70
2023-01-19T19:26:11.284Z,58.20
2023-01-19T19:28:40.734Z,63.70
2023-01-19T19:31:12.062Z,57.40
2023-01-19T19:33:41.142Z,57.30
2023-01-19T19:36:10.584Z,58.80
2023-01-19T19:38:41.290Z,38.60
2023-01-19T19:41:12.749Z,48.60
2023-01-19T19:43:41.269Z,47.00
2023-01-19T19:46:13.035Z,52.10
2023-01-19T19:48:41.881Z,53.50
2023-01-19T19:51:19.090Z,44.60
2023-01-19T19:53:51.230Z,46.60
2023-01-19T19:56:22.280Z,36.10
2023-01-19T19:58:52.461Z,50.70
2023-01-19T20:01:29.064Z,60.50
2023-01-19T20:04:00.232Z,50.00
2023-01-19T20:06:28.822Z,39.40
2023-01-19T20:08:57.205Z,41.30
2023-01-19T20:11:28.354Z,55.00
2023-01-19T20:13:56.530Z,45.80
2023-01-19T20:16:25.075Z,41.70
2023-01-19T20:18:54.400Z,64.50
2023-01-19T20:21:28.737Z,53.90
2023-01-19T20:24:01.061Z,48.70
2023-01-19T20:26:32.479Z,49.70
2023-01-19T20:29:03.154Z,41.00
2023-01-19T20:31:34.487Z,61.70
2023-01-19T20:34:05.917Z,52.10
2023-01-19T20:36:35.457Z,54.90
2023-01-19T20:39:10.480Z,59.70
2023-01-19T20:41:43.816Z,54.60
2023-01-19T20:44:15.624Z,54.70
2023-01-19T20:46:44.212Z,54.50
2023-01-19T20:49:12.587Z,50.30
2023-01-19T20:51:46.313Z,64.50
2023-01-19T20:54:16.729Z,36.40
2023-01-19T20:56:45.231Z,46.30
2023-01-19T20:59:14.182Z,23.10
2023-01-19T21:01:43.280Z,34.10
2023-01-19T21:04:12.988Z,24.80
2023-01-19T21:06:42.193Z,27.30
2023-01-19T21:09:11.162Z,34.20
2023-01-19T21:11:40.127Z,40.00
2023-01-19T21:14:08.303Z,65.30
2023-01-19T21:16:37.586Z,55.90
2023-01-19T21:19:06.000Z,37.30
2023-01-19T21:21:34.273Z,26.60
2023-01-19T21:24:04.302Z,19.00
2023-01-19T21:26:33.785Z,14.10
2023-01-19T21:29:02.868Z,22.80
2023-01-19T21:31:31.672Z,21.90
2023-01-19T21:34:00.002Z,38.00
2023-01-19T21:36:28.467Z,34.50
2023-01-19T21:39:00.918Z,42.20
2023-01-19T21:41:30.658Z,49.80
2023-01-19T21:44:00.973Z,51.50
2023-01-19T21:46:30.620Z,29.70
2023-01-19T21:49:01.581Z,35.70
2023-01-19T21:51:33.644Z,42.00
2023-01-19T21:54:03.473Z,33.40
2023-01-19T21:56:32.304Z,42.60
2023-01-19T21:59:03.166Z,41.10
2023-01-19T22:01:33.231Z,26.70
2023-01-19T22:04:01.586Z,25.10
2023-01-19T22:06:30.057Z,28.10
2023-01-19T22:08:58.644Z,25.80
2023-01-19T22:11:27.345Z,37.00
2023-01-19T22:13:55.825Z,33.00
2023-01-19T22:16:24.208Z,38.00
2023-01-19T22:18:56.371Z,40.00
2023-01-19T22:21:26.815Z,37.60
2023-01-19T22:23:59.080Z,38.00
2023-01-19T22:26:30.040Z,44.60
2023-01-19T22:29:00.173Z,40.80
2023-01-19T22:31:29.600Z,27.00
2023-01-19T22:33:58.510Z,43.00
2023-01-19T22:36:34.107Z,35.90
2023-01-19T22:39:07.311Z,25.80
2023-01-19T22:41:44.958Z,38.10
2023-01-19T22:44:16.461Z,29.20
2023-01-19T22:46:45.157Z,32.50
2023-01-19T22:49:16.706Z,29.60
2023-01-19T22:51:46.153Z,26.50
2023-01-19T22:54:14.388Z,28.00
2023-01-19T22:56:42.985Z,25.40
2023-01-19T22:59:11.883Z,27.50
2023-01-19T23:01:43.234Z,23.20
2023-01-19T23:04:14.762Z,24.30
2023-01-19T23:06:43.470Z,25.40
2023-01-19T23:09:14.338Z,23.40
2023-01-19T23:11:45.164Z,25.80
2023-01-19T23:14:16.307Z,33.50
2023-01-19T23:16:47.255Z,24.60
2023-01-19T23:19:17.411Z,22.60
2023-01-19T23:21:45.965Z,20.70
2023-01-19T23:24:14.130Z,16.80
2023-01-19T23:26:42.519Z,24.80
2023-01-19T23:29:13.786Z,19.30
2023-01-19T23:31:50.646Z,18.00
2023-01-19T23:34:19.553Z,30.10
2023-01-19T23:36:48.068Z,17.80
2023-01-19T23:39:22.271Z,34.80
2023-01-19T23:41:50.838Z,15.90
2023-01-19T23:44:19.873Z,21.10
2023-01-19T23:46:48.219Z,20.30
2023-01-19T23:49:17.223Z,30.10
2023-01-19T23:51:45.702Z,27.70
2023-01-19T23:54:13.880Z,21.50
2023-01-19T23:56:43.000Z,22.10
2023-01-19T23:59:16.505Z,25.30
